createdAt,value
2023-03-17T00:00:15.369Z,0.00
2023-03-17T00:01:15.337Z,0.00
2023-03-17T00:02:15.336Z,0.00
2023-03-17T00:03:15.439Z,0.00
2023-03-17T00:04:15.235Z,0.00
2023-03-17T00:05:15.183Z,0.00
2023-03-17T00:06:15.156Z,0.00
2023-03-17T00:07:15.122Z,0.00
2023-03-17T00:08:15.062Z,0.00
2023-03-17T00:09:15.119Z,0.00
2023-03-17T00:10:14.999Z,0.00
2023-03-17T00:11:14.989Z,0.00
2023-03-17T00:12:14.923Z,0.00
2023-03-17T00:13:14.883Z,0.00
2023-03-17T00:14:14.857Z,0.00
2023-03-17T00:15:14.918Z,0.00
2023-03-17T00:16:14.848Z,0.00
2023-03-17T00:17:14.759Z,0.00
2023-03-17T00:18:14.693Z,0.00
2023-03-17T00:19:14.663Z,0.00
2023-03-17T00:20:14.630Z,0.00
2023-03-17T00:21:14.657Z,0.00
2023-03-17T00:22:14.547Z,0.00
2023-03-17T00:23:14.512Z,0.00
2023-03-17T00:24:15.172Z,0.00
2023-03-17T00:25:14.444Z,0.00
2023-03-17T00:26:14.423Z,0.00
2023-03-17T00:27:14.429Z,0.00
2023-03-17T00:28:14.344Z,0.00
2023-03-17T00:29:14.309Z,0.00
2023-03-17T00:30:14.263Z,0.00
2023-03-17T00:31:14.259Z,0.00
2023-03-17T00:32:14.192Z,0.00
2023-03-17T00:33:14.209Z,0.00
2023-03-17T00:34:14.112Z,0.00
2023-03-17T00:35:14.076Z,0.00
2023-03-17T00:36:14.038Z,0.00
2023-03-17T00:37:14.007Z,0.00
2023-03-17T00:38:14.044Z,0.00
2023-03-17T00:40:06.379Z,0.00
2023-03-17T00:41:06.328Z,0.00
2023-03-17T00:42:06.290Z,0.00
2023-03-17T00:43:06.253Z,0.00
2023-03-17T00:44:06.291Z,0.00
2023-03-17T00:45:06.189Z,0.00
2023-03-17T00:46:06.144Z,0.00
2023-03-17T00:47:06.145Z,0.00
2023-03-17T00:48:06.090Z,0.00
2023-03-17T00:49:06.023Z,0.00
2023-03-17T00:50:06.054Z,0.00
2023-03-17T00:51:05.951Z,0.00
2023-03-17T00:52:05.915Z,0.00
2023-03-17T00:53:05.877Z,0.00
2023-03-17T00:54:05.848Z,0.00
2023-03-17T00:55:05.816Z,0.00
2023-03-17T00:56:05.845Z,0.00
2023-03-17T00:57:05.746Z,0.00
2023-03-17T00:58:05.691Z,0.00
2023-03-17T00:59:05.693Z,0.00
2023-03-17T01:00:05.626Z,0.00
2023-03-17T01:01:05.716Z,0.00
2023-03-17T01:02:05.683Z,0.00
2023-03-17T01:03:05.540Z,0.00
2023-03-17T01:04:05.565Z,0.00
2023-03-17T01:05:06.948Z,0.00
2023-03-17T01:06:05.411Z,0.00
2023-03-17T01:07:05.371Z,0.00
2023-03-17T01:08:05.321Z,0.00
2023-03-17T01:09:05.384Z,0.00
2023-03-17T01:10:05.255Z,0.00
2023-03-17T01:11:05.206Z,0.00
2023-03-17T01:12:05.301Z,0.00
2023-03-17T01:13:05.154Z,0.00
2023-03-17T01:14:05.582Z,0.00
2023-03-17T01:15:05.062Z,0.00
2023-03-17T01:16:05.086Z,0.00
2023-03-17T01:17:05.022Z,0.00
2023-03-17T01:18:04.955Z,0.00
2023-03-17T01:19:05.003Z,0.00
2023-03-17T01:20:04.885Z,0.00
2023-03-17T01:21:04.893Z,0.00
2023-03-17T01:22:04.894Z,0.00
2023-03-17T01:23:04.785Z,0.00
2023-03-17T01:24:04.801Z,0.00
2023-03-17T01:25:04.724Z,0.00
2023-03-17T01:26:04.678Z,0.00
2023-03-17T01:27:04.639Z,0.00
2023-03-17T01:28:04.611Z,0.00
2023-03-17T01:29:04.619Z,0.00
2023-03-17T01:30:04.529Z,0.00
2023-03-17T01:31:04.470Z,0.00
2023-03-17T01:32:04.442Z,0.00
2023-03-17T01:33:04.499Z,0.00
2023-03-17T01:34:04.374Z,0.00
2023-03-17T01:35:04.398Z,0.00
2023-03-17T01:36:04.320Z,0.00
2023-03-17T01:37:04.256Z,0.00
2023-03-17T01:38:04.220Z,0.00
2023-03-17T01:39:04.245Z,0.00
2023-03-17T01:40:04.244Z,0.00
2023-03-17T01:41:04.117Z,0.00
2023-03-17T01:42:04.083Z,0.00
2023-03-17T01:43:04.041Z,0.00
2023-03-17T01:44:03.998Z,0.00
2023-03-17T01:45:03.957Z,0.00
2023-03-17T01:46:04.037Z,0.00
2023-03-17T01:47:03.902Z,0.00
2023-03-17T01:48:03.846Z,0.00
2023-03-17T01:49:03.826Z,0.00
2023-03-17T01:50:03.786Z,0.00
2023-03-17T01:51:03.740Z,0.00
2023-03-17T01:52:03.764Z,0.00
2023-03-17T01:53:03.684Z,0.00
2023-03-17T01:54:03.643Z,0.00
2023-03-17T01:55:03.606Z,0.00
2023-03-17T01:56:03.570Z,0.00
2023-03-17T01:57:03.515Z,0.00
2023-03-17T01:58:03.548Z,0.00
2023-03-17T01:59:03.465Z,0.00
2023-03-17T02:00:03.445Z,0.00
2023-03-17T02:01:03.403Z,0.00
2023-03-17T02:02:03.332Z,0.00
2023-03-17T02:03:03.307Z,0.00
2023-03-17T02:04:03.336Z,0.00
2023-03-17T02:05:03.234Z,0.00
2023-03-17T02:06:03.181Z,0.00
2023-03-17T02:07:03.158Z,0.00
2023-03-17T02:08:03.136Z,0.00
2023-03-17T02:09:03.077Z,0.00
2023-03-17T02:10:03.101Z,0.00
2023-03-17T02:11:03.006Z,0.00
2023-03-17T02:12:03.019Z,0.00
2023-03-17T02:13:02.932Z,0.00
2023-03-17T02:14:02.910Z,0.00
2023-03-17T02:15:02.919Z,0.00
2023-03-17T02:16:02.833Z,0.00
2023-03-17T02:17:02.875Z,0.00
2023-03-17T02:18:02.738Z,0.00
2023-03-17T02:19:02.710Z,0.00
2023-03-17T02:20:02.699Z,0.00
2023-03-17T02:21:02.676Z,0.00
2023-03-17T02:22:02.632Z,0.00
2023-03-17T02:23:02.626Z,0.00
2023-03-17T02:24:02.528Z,0.00
2023-03-17T02:25:02.501Z,0.00
2023-03-17T02:26:02.470Z,0.00
2023-03-17T02:27:02.435Z,0.00
2023-03-17T02:28:02.388Z,0.00
2023-03-17T02:29:02.428Z,0.00
2023-03-17T02:30:02.295Z,0.00
2023-03-17T02:31:02.320Z,0.00
2023-03-17T02:32:02.239Z,0.00
2023-03-17T02:33:02.208Z,0.00
2023-03-17T02:34:02.158Z,0.00
2023-03-17T02:35:02.183Z,0.00
2023-03-17T02:36:02.087Z,0.00
2023-03-17T02:37:02.063Z,0.00
2023-03-17T02:38:02.072Z,0.00
2023-03-17T02:39:01.970Z,0.00
2023-03-17T02:40:01.956Z,0.00
2023-03-17T02:41:01.906Z,0.00
2023-03-17T02:42:01.868Z,0.00
2023-03-17T02:43:01.878Z,0.00
2023-03-17T02:44:01.801Z,0.00
2023-03-17T02:45:01.759Z,0.00
2023-03-17T02:46:01.778Z,0.00
2023-03-17T02:47:01.683Z,0.00
2023-03-17T02:48:01.670Z,0.00
2023-03-17T02:49:01.672Z,0.00
2023-03-17T02:50:01.572Z,0.00
2023-03-17T02:51:01.557Z,0.00
2023-03-17T02:52:01.515Z,0.00
2023-03-17T02:53:01.462Z,0.00
2023-03-17T02:54:01.436Z,0.00
2023-03-17T02:55:01.440Z,0.00
2023-03-17T02:56:01.381Z,0.00
2023-03-17T02:57:01.401Z,0.00
2023-03-17T02:58:01.277Z,0.00
2023-03-17T02:59:01.255Z,0.00
2023-03-17T03:00:01.203Z,0.00
2023-03-17T03:01:01.249Z,0.00
2023-03-17T03:02:01.142Z,0.00
2023-03-17T03:03:01.116Z,0.00
2023-03-17T03:04:01.057Z,0.00
2023-03-17T03:05:01.021Z,0.00
2023-03-17T03:06:03.093Z,0.00
2023-03-17T03:07:00.951Z,0.00
2023-03-17T03:08:00.911Z,0.00
2023-03-17T03:09:00.872Z,0.00
2023-03-17T03:10:00.845Z,0.00
2023-03-17T03:11:00.796Z,0.00
2023-03-17T03:12:00.859Z,0.00
2023-03-17T03:13:00.729Z,0.00
2023-03-17T03:14:00.725Z,0.00
2023-03-17T03:15:00.662Z,0.00
2023-03-17T03:16:00.704Z,0.00
2023-03-17T03:17:00.652Z,0.00
2023-03-17T03:18:00.544Z,0.00
2023-03-17T03:19:00.513Z,0.00
2023-03-17T03:20:00.500Z,0.00
2023-03-17T03:21:00.436Z,0.00
2023-03-17T03:22:00.470Z,0.00
2023-03-17T03:23:00.366Z,0.00
2023-03-17T03:24:00.329Z,0.00
2023-03-17T03:25:00.335Z,0.00
2023-03-17T03:26:00.291Z,0.00
2023-03-17T03:27:00.266Z,0.00
2023-03-17T03:28:00.173Z,0.00
2023-03-17T03:29:00.239Z,0.00
2023-03-17T03:30:00.168Z,0.00
2023-03-17T03:31:00.103Z,0.00
2023-03-17T03:32:00.041Z,0.00
2023-03-17T03:33:00.129Z,0.00
2023-03-17T03:33:59.965Z,0.00
2023-03-17T03:34:59.925Z,0.00
2023-03-17T03:35:59.930Z,0.00
2023-03-17T03:36:59.939Z,0.00
2023-03-17T03:37:59.811Z,0.00
2023-03-17T03:38:59.789Z,0.00
2023-03-17T03:39:59.741Z,0.00
2023-03-17T03:40:59.702Z,0.00
2023-03-17T03:41:59.645Z,0.00
2023-03-17T03:42:59.923Z,0.00
2023-03-17T03:43:59.588Z,0.00
2023-03-17T03:44:59.548Z,0.00
2023-03-17T03:45:59.497Z,0.00
2023-03-17T03:46:59.470Z,0.00
2023-03-17T03:47:59.447Z,0.00
2023-03-17T03:48:59.492Z,0.00
2023-03-17T03:49:59.355Z,0.00
2023-03-17T03:50:59.320Z,0.00
2023-03-17T03:51:59.292Z,0.00
2023-03-17T03:52:59.264Z,0.00
2023-03-17T03:53:59.216Z,0.00
2023-03-17T03:54:59.240Z,0.00
2023-03-17T03:55:59.137Z,0.00
2023-03-17T03:56:59.107Z,0.00
2023-03-17T03:57:59.085Z,0.00
2023-03-17T03:58:59.029Z,0.00
2023-03-17T03:59:58.984Z,0.00
2023-03-17T04:00:59.011Z,0.00
2023-03-17T04:01:58.941Z,0.00
2023-03-17T04:02:58.962Z,0.00
2023-03-17T04:03:58.833Z,0.00
2023-03-17T04:04:58.861Z,0.00
2023-03-17T04:05:58.758Z,0.00
2023-03-17T04:06:58.780Z,0.00
2023-03-17T04:07:58.685Z,0.00
2023-03-17T04:08:58.644Z,0.00
2023-03-17T04:09:58.621Z,0.00
2023-03-17T04:10:58.582Z,0.00
2023-03-17T04:11:58.532Z,0.00
2023-03-17T04:12:58.567Z,0.00
2023-03-17T04:13:58.463Z,0.00
2023-03-17T04:14:58.427Z,0.00
2023-03-17T04:15:58.475Z,0.00
2023-03-17T04:16:58.420Z,0.00
2023-03-17T04:17:58.338Z,0.00
2023-03-17T04:18:58.349Z,0.00
2023-03-17T04:19:58.243Z,0.00
2023-03-17T04:20:58.208Z,0.00
2023-03-17T04:21:58.246Z,0.00
2023-03-17T04:22:58.124Z,0.00
2023-03-17T04:23:58.103Z,0.00
2023-03-17T04:24:58.054Z,0.00
2023-03-17T04:25:58.014Z,0.00
2023-03-17T04:26:58.047Z,0.00
2023-03-17T04:27:57.964Z,0.00
2023-03-17T04:28:57.914Z,0.00
2023-03-17T04:29:57.870Z,0.00
2023-03-17T04:30:57.840Z,0.00
2023-03-17T04:31:57.926Z,0.00
2023-03-17T04:32:57.897Z,0.00
2023-03-17T04:33:57.744Z,0.00
2023-03-17T04:34:57.703Z,0.00
2023-03-17T04:35:57.660Z,0.00
2023-03-17T04:36:57.623Z,0.00
2023-03-17T04:37:57.575Z,0.00
2023-03-17T04:38:57.639Z,0.00
2023-03-17T04:39:57.499Z,0.00
2023-03-17T04:40:57.470Z,0.00
2023-03-17T04:41:57.440Z,0.00
2023-03-17T04:42:57.385Z,0.00
2023-03-17T04:43:57.367Z,0.00
2023-03-17T04:44:57.374Z,0.00
2023-03-17T04:45:57.346Z,0.00
2023-03-17T04:46:57.235Z,0.00
2023-03-17T04:47:57.208Z,0.00
2023-03-17T04:48:57.198Z,0.00
2023-03-17T04:49:57.141Z,0.00
2023-03-17T04:50:57.169Z,0.00
2023-03-17T04:51:57.069Z,0.00
2023-03-17T04:52:57.027Z,0.00
2023-03-17T04:53:57.008Z,0.00
2023-03-17T04:54:56.949Z,0.00
2023-03-17T04:55:56.913Z,0.00
2023-03-17T04:56:56.955Z,0.00
2023-03-17T04:57:56.844Z,0.00
2023-03-17T04:58:56.797Z,0.00
2023-03-17T04:59:56.764Z,0.00
2023-03-17T05:00:56.747Z,0.00
2023-03-17T05:01:56.703Z,0.00
2023-03-17T05:02:56.697Z,0.00
2023-03-17T05:03:56.675Z,0.00
2023-03-17T05:04:56.571Z,0.00
2023-03-17T05:05:56.542Z,0.00
2023-03-17T05:06:56.508Z,0.00
2023-03-17T05:07:56.469Z,0.00
2023-03-17T05:08:56.496Z,0.00
2023-03-17T05:09:56.396Z,0.00
2023-03-17T05:10:56.361Z,0.00
2023-03-17T05:11:56.337Z,0.00
2023-03-17T05:12:56.313Z,0.00
2023-03-17T05:13:56.252Z,0.00
2023-03-17T05:14:56.267Z,0.00
2023-03-17T05:15:56.164Z,5.63
2023-03-17T05:16:56.184Z,5.63
2023-03-17T05:17:56.098Z,5.63
2023-03-17T05:18:56.053Z,5.63
2023-03-17T05:19:56.058Z,5.63
2023-03-17T05:20:56.048Z,5.63
2023-03-17T05:21:55.945Z,5.63
2023-03-17T05:22:55.946Z,5.63
2023-03-17T05:23:55.875Z,5.63
2023-03-17T05:24:55.834Z,5.63
2023-03-17T05:25:55.844Z,11.25
2023-03-17T05:26:55.829Z,11.25
2023-03-17T05:27:55.726Z,11.25
2023-03-17T05:28:55.688Z,11.25
2023-03-17T05:29:55.674Z,16.88
2023-03-17T05:30:55.691Z,16.88
2023-03-17T05:31:55.576Z,16.88
2023-03-17T05:32:55.630Z,16.88
2023-03-17T05:33:55.510Z,22.50
2023-03-17T05:34:55.459Z,22.50
2023-03-17T05:35:55.490Z,22.50
2023-03-17T05:36:55.393Z,22.50
2023-03-17T05:37:55.361Z,22.50
2023-03-17T05:38:55.387Z,22.50
2023-03-17T05:39:55.283Z,22.50
2023-03-17T05:40:55.280Z,22.50
2023-03-17T05:41:55.216Z,28.13
2023-03-17T05:42:55.181Z,28.13
2023-03-17T05:43:55.142Z,28.13
2023-03-17T05:44:55.160Z,28.13
2023-03-17T05:45:55.080Z,28.13
2023-03-17T05:46:55.030Z,33.75
2023-03-17T05:47:54.989Z,33.75
2023-03-17T05:48:54.957Z,39.38
2023-03-17T05:49:54.925Z,39.38
2023-03-17T05:50:54.922Z,39.38
2023-03-17T05:51:54.839Z,45.00
2023-03-17T05:52:54.806Z,45.00
2023-03-17T05:53:54.790Z,45.00
2023-03-17T05:54:54.738Z,50.63
2023-03-17T05:55:54.695Z,50.63
2023-03-17T05:56:58.958Z,50.63
2023-03-17T05:57:54.623Z,56.25
2023-03-17T05:58:54.591Z,56.25
2023-03-17T05:59:54.559Z,56.25
2023-03-17T06:00:54.506Z,61.88
2023-03-17T06:01:54.478Z,61.88
2023-03-17T06:02:54.490Z,67.50
2023-03-17T06:03:54.446Z,67.50
2023-03-17T06:04:54.366Z,73.13
2023-03-17T06:05:54.331Z,78.75
2023-03-17T06:06:54.296Z,78.75
2023-03-17T06:07:56.468Z,84.38
2023-03-17T06:08:54.217Z,84.38
2023-03-17T06:09:54.181Z,90.00
2023-03-17T06:10:54.132Z,90.00
2023-03-17T06:11:54.120Z,90.00
2023-03-17T06:12:54.076Z,90.00
2023-03-17T06:13:54.090Z,90.00
2023-03-17T06:14:54.002Z,90.00
2023-03-17T06:15:53.986Z,90.00
2023-03-17T06:16:53.924Z,90.00
2023-03-17T06:17:53.895Z,90.00
2023-03-17T06:18:53.926Z,90.00
2023-03-17T06:19:53.813Z,90.00
2023-03-17T06:20:53.819Z,95.63
2023-03-17T06:21:53.734Z,95.63
2023-03-17T06:23:04.068Z,95.63
2023-03-17T06:23:53.794Z,106.88
2023-03-17T06:24:55.438Z,112.50
2023-03-17T06:25:53.607Z,123.75
2023-03-17T06:26:53.555Z,135.00
2023-03-17T06:27:53.532Z,151.88
2023-03-17T06:28:53.479Z,168.75
2023-03-17T06:29:53.498Z,180.00
2023-03-17T06:30:53.461Z,191.25
2023-03-17T06:31:53.376Z,202.50
2023-03-17T06:32:53.353Z,213.75
2023-03-17T06:33:53.622Z,219.38
2023-03-17T06:34:53.254Z,225.00
2023-03-17T06:35:53.309Z,225.00
2023-03-17T06:36:53.201Z,225.00
2023-03-17T06:37:53.155Z,225.00
2023-03-17T06:38:53.147Z,225.00
2023-03-17T06:39:53.082Z,225.00
2023-03-17T06:40:53.045Z,225.00
2023-03-17T06:41:53.058Z,225.00
2023-03-17T06:42:52.966Z,225.00
2023-03-17T06:43:52.945Z,225.00
2023-03-17T06:44:52.910Z,225.00
2023-03-17T06:45:52.871Z,225.00
2023-03-17T06:46:52.930Z,230.63
2023-03-17T06:47:52.855Z,230.63
2023-03-17T06:48:52.768Z,230.63
2023-03-17T06:49:52.712Z,230.63
2023-03-17T06:50:52.692Z,230.63
2023-03-17T06:51:52.648Z,230.63
2023-03-17T06:52:52.633Z,230.63
2023-03-17T06:53:52.644Z,230.63
2023-03-17T06:54:52.537Z,230.63
2023-03-17T06:55:52.503Z,236.25
2023-03-17T06:56:52.469Z,241.88
2023-03-17T06:57:52.431Z,236.25
2023-03-17T06:58:52.466Z,241.88
2023-03-17T06:59:52.376Z,241.88
2023-03-17T07:00:52.316Z,247.50
2023-03-17T07:01:52.340Z,258.75
2023-03-17T07:02:52.262Z,264.38
2023-03-17T07:03:52.220Z,275.63
2023-03-17T07:04:52.281Z,275.63
2023-03-17T07:05:52.141Z,281.25
2023-03-17T07:06:52.129Z,286.88
2023-03-17T07:07:52.074Z,286.88
2023-03-17T07:08:52.049Z,286.88
2023-03-17T07:09:52.004Z,286.88
2023-03-17T07:10:52.009Z,286.88
2023-03-17T07:11:51.935Z,292.50
2023-03-17T07:12:51.924Z,292.50
2023-03-17T07:13:51.863Z,292.50
2023-03-17T07:14:51.825Z,292.50
2023-03-17T07:15:54.498Z,298.13
2023-03-17T07:16:51.904Z,303.75
2023-03-17T07:17:51.968Z,315.00
2023-03-17T07:18:51.682Z,315.00
2023-03-17T07:19:51.665Z,315.00
2023-03-17T07:20:51.616Z,309.38
2023-03-17T07:21:51.578Z,303.75
2023-03-17T07:22:51.627Z,298.13
2023-03-17T07:23:51.521Z,298.13
2023-03-17T07:24:51.500Z,309.38
2023-03-17T07:25:51.435Z,315.00
2023-03-17T07:26:51.407Z,326.25
2023-03-17T07:27:51.369Z,331.88
2023-03-17T07:28:51.382Z,337.50
2023-03-17T07:29:51.290Z,337.50
2023-03-17T07:30:51.320Z,337.50
2023-03-17T07:31:51.267Z,331.88
2023-03-17T07:32:51.264Z,320.63
2023-03-17T07:33:51.170Z,309.38
2023-03-17T07:34:51.119Z,286.88
2023-03-17T07:35:51.693Z,275.63
2023-03-17T07:36:51.069Z,264.38
2023-03-17T07:37:51.059Z,264.38
2023-03-17T07:38:50.975Z,270.00
2023-03-17T07:39:50.955Z,281.25
2023-03-17T07:40:50.908Z,298.13
2023-03-17T07:41:50.923Z,303.75
2023-03-17T07:42:50.840Z,309.38
2023-03-17T07:43:50.815Z,309.38
2023-03-17T07:44:50.779Z,303.75
2023-03-17T07:45:50.768Z,298.13
2023-03-17T07:46:50.692Z,298.13
2023-03-17T07:47:50.774Z,303.75
2023-03-17T07:48:50.642Z,303.75
2023-03-17T07:49:50.597Z,309.38
2023-03-17T07:50:50.557Z,320.63
2023-03-17T07:51:50.553Z,315.00
2023-03-17T07:52:50.492Z,320.63
2023-03-17T07:53:50.499Z,326.25
2023-03-17T07:54:50.412Z,326.25
2023-03-17T07:55:50.414Z,326.25
2023-03-17T07:56:50.345Z,326.25
2023-03-17T07:57:50.324Z,326.25
2023-03-17T07:58:50.288Z,326.25
2023-03-17T07:59:50.302Z,326.25
2023-03-17T08:00:50.249Z,331.88
2023-03-17T08:01:50.211Z,337.50
2023-03-17T08:03:06.886Z,348.75
2023-03-17T08:03:50.147Z,354.38
2023-03-17T08:04:50.075Z,354.38
2023-03-17T08:05:50.114Z,365.63
2023-03-17T08:06:50.000Z,376.88
2023-03-17T08:07:49.965Z,376.88
2023-03-17T08:08:49.932Z,388.13
2023-03-17T08:09:49.891Z,405.00
2023-03-17T08:10:49.898Z,421.88
2023-03-17T08:11:49.883Z,438.75
2023-03-17T08:12:49.798Z,450.00
2023-03-17T08:13:49.761Z,461.25
2023-03-17T08:14:49.723Z,472.50
2023-03-17T08:15:49.683Z,478.13
2023-03-17T08:16:49.698Z,483.75
2023-03-17T08:17:49.685Z,483.75
2023-03-17T08:18:49.583Z,483.75
2023-03-17T08:19:49.580Z,478.13
2023-03-17T08:20:49.542Z,472.50
2023-03-17T08:21:49.549Z,455.63
2023-03-17T08:22:49.449Z,455.63
2023-03-17T08:23:49.509Z,455.63
2023-03-17T08:24:49.395Z,455.63
2023-03-17T08:25:49.395Z,461.25
2023-03-17T08:26:49.363Z,461.25
2023-03-17T08:27:49.302Z,461.25
2023-03-17T08:28:49.284Z,461.25
2023-03-17T08:29:49.337Z,461.25
2023-03-17T08:30:50.590Z,461.25
2023-03-17T08:31:49.242Z,461.25
2023-03-17T08:32:49.222Z,461.25
2023-03-17T08:33:49.079Z,461.25
2023-03-17T08:34:49.116Z,461.25
2023-03-17T08:35:49.118Z,466.88
2023-03-17T08:36:48.995Z,466.88
2023-03-17T08:37:48.958Z,472.50
2023-03-17T08:38:48.924Z,472.50
2023-03-17T08:39:48.895Z,478.13
2023-03-17T08:40:48.853Z,483.75
2023-03-17T08:41:48.868Z,483.75
2023-03-17T08:42:48.784Z,483.75
2023-03-17T08:43:48.762Z,489.38
2023-03-17T08:44:48.713Z,489.38
2023-03-17T08:45:48.726Z,495.00
2023-03-17T08:46:48.646Z,489.38
2023-03-17T08:47:48.662Z,495.00
2023-03-17T08:48:48.583Z,495.00
2023-03-17T08:49:48.605Z,500.63
2023-03-17T08:50:48.554Z,500.63
2023-03-17T08:51:48.487Z,506.25
2023-03-17T08:52:48.447Z,500.63
2023-03-17T08:53:48.756Z,506.25
2023-03-17T08:54:48.393Z,511.88
2023-03-17T08:55:48.403Z,523.13
2023-03-17T08:56:48.322Z,523.13
2023-03-17T08:57:48.304Z,523.13
2023-03-17T08:58:48.265Z,523.13
2023-03-17T08:59:48.231Z,523.13
2023-03-17T09:00:48.193Z,523.13
2023-03-17T09:01:48.350Z,517.50
2023-03-17T09:02:48.179Z,511.88
2023-03-17T09:03:48.100Z,500.63
2023-03-17T09:04:48.083Z,495.00
2023-03-17T09:05:48.045Z,483.75
2023-03-17T09:07:02.193Z,483.75
2023-03-17T09:07:48.055Z,483.75
2023-03-17T09:08:47.979Z,489.38
2023-03-17T09:09:47.903Z,483.75
2023-03-17T09:10:47.879Z,483.75
2023-03-17T09:11:47.846Z,483.75
2023-03-17T09:12:47.818Z,472.50
2023-03-17T09:13:47.844Z,466.88
2023-03-17T09:14:49.253Z,466.88
2023-03-17T09:15:48.663Z,461.25
2023-03-17T09:16:47.690Z,461.25
2023-03-17T09:17:47.658Z,466.88
2023-03-17T09:18:47.692Z,466.88
2023-03-17T09:19:47.654Z,472.50
2023-03-17T09:20:47.554Z,472.50
2023-03-17T09:21:47.521Z,472.50
2023-03-17T09:22:47.484Z,478.13
2023-03-17T09:23:47.498Z,472.50
2023-03-17T09:24:47.425Z,466.88
2023-03-17T09:25:47.425Z,466.88
2023-03-17T09:26:47.368Z,466.88
2023-03-17T09:27:47.331Z,472.50
2023-03-17T09:28:47.293Z,472.50
2023-03-17T09:29:47.295Z,478.13
2023-03-17T09:30:47.297Z,483.75
2023-03-17T09:31:47.258Z,478.13
2023-03-17T09:32:47.223Z,483.75
2023-03-17T09:33:47.139Z,483.75
2023-03-17T09:34:47.575Z,483.75
2023-03-17T09:35:47.090Z,489.38
2023-03-17T09:36:47.048Z,495.00
2023-03-17T09:37:47.077Z,495.00
2023-03-17T09:38:46.987Z,506.25
2023-03-17T09:39:46.948Z,500.63
2023-03-17T09:40:46.923Z,506.25
2023-03-17T09:41:46.895Z,500.63
2023-03-17T09:42:46.866Z,495.00
2023-03-17T09:43:46.864Z,495.00
2023-03-17T09:44:46.793Z,495.00
2023-03-17T09:45:46.758Z,500.63
2023-03-17T09:46:46.844Z,506.25
2023-03-17T09:47:46.702Z,500.63
2023-03-17T09:48:46.665Z,500.63
2023-03-17T09:49:46.696Z,495.00
2023-03-17T09:50:46.607Z,495.00
2023-03-17T09:51:46.571Z,495.00
2023-03-17T09:52:46.544Z,489.38
2023-03-17T09:53:46.506Z,489.38
2023-03-17T09:54:46.491Z,483.75
2023-03-17T09:55:46.497Z,483.75
2023-03-17T09:56:46.416Z,483.75
2023-03-17T09:57:46.476Z,483.75
2023-03-17T09:58:48.471Z,483.75
2023-03-17T09:59:46.323Z,483.75
2023-03-17T10:00:46.303Z,483.75
2023-03-17T10:01:46.309Z,478.13
2023-03-17T10:02:46.301Z,478.13
2023-03-17T10:03:46.198Z,472.50
2023-03-17T10:04:46.233Z,478.13
2023-03-17T10:05:46.199Z,478.13
2023-03-17T10:06:46.117Z,483.75
2023-03-17T10:07:46.140Z,489.38
2023-03-17T10:08:46.050Z,500.63
2023-03-17T10:09:46.006Z,495.00
2023-03-17T10:10:45.986Z,500.63
2023-03-17T10:11:45.952Z,506.25
2023-03-17T10:12:45.915Z,511.88
2023-03-17T10:13:46.000Z,511.88
2023-03-17T10:14:45.856Z,517.50
2023-03-17T10:15:45.936Z,523.13
2023-03-17T10:16:45.823Z,528.75
2023-03-17T10:17:45.774Z,528.75
2023-03-17T10:18:45.762Z,534.38
2023-03-17T10:24:29.581Z,551.25
2023-03-17T10:25:21.866Z,551.25
2023-03-17T10:26:21.831Z,556.88
2023-03-17T10:27:21.831Z,562.50
2023-03-17T10:28:21.766Z,562.50
2023-03-17T10:29:21.739Z,551.25
2023-03-17T10:30:21.770Z,551.25
2023-03-17T10:31:21.733Z,551.25
2023-03-17T10:32:21.636Z,545.63
2023-03-17T10:33:21.619Z,551.25
2023-03-17T10:34:21.589Z,540.00
2023-03-17T10:35:21.546Z,540.00
2023-03-17T10:36:21.561Z,534.38
2023-03-17T10:37:21.485Z,534.38
2023-03-17T10:38:21.482Z,534.38
2023-03-17T10:39:21.461Z,534.38
2023-03-17T10:40:21.416Z,534.38
2023-03-17T10:41:21.355Z,534.38
2023-03-17T10:42:21.387Z,534.38
2023-03-17T10:43:21.301Z,534.38
2023-03-17T10:44:21.272Z,528.75
2023-03-17T10:45:21.242Z,528.75
2023-03-17T10:46:21.240Z,523.13
2023-03-17T10:47:21.181Z,517.50
2023-03-17T10:48:21.208Z,517.50
2023-03-17T10:49:21.124Z,511.88
2023-03-17T10:50:21.098Z,511.88
2023-03-17T10:51:21.117Z,523.13
2023-03-17T10:52:21.103Z,523.13
2023-03-17T10:53:21.008Z,523.13
2023-03-17T10:54:21.020Z,534.38
2023-03-17T10:55:20.945Z,540.00
2023-03-17T10:56:20.915Z,534.38
2023-03-17T10:57:20.871Z,534.38
2023-03-17T10:58:20.854Z,528.75
2023-03-17T10:59:20.918Z,528.75
2023-03-17T11:00:20.909Z,523.13
2023-03-17T11:01:20.780Z,517.50
2023-03-17T11:02:20.730Z,511.88
2023-03-17T11:03:20.707Z,506.25
2023-03-17T11:04:20.793Z,500.63
2023-03-17T11:05:20.650Z,495.00
2023-03-17T11:06:20.708Z,495.00
2023-03-17T11:07:20.581Z,489.38
2023-03-17T11:08:20.552Z,483.75
2023-03-17T11:09:20.528Z,483.75
2023-03-17T11:10:20.499Z,483.75
2023-03-17T11:11:21.311Z,478.13
2023-03-17T11:12:20.498Z,472.50
2023-03-17T11:13:20.409Z,466.88
2023-03-17T11:14:20.375Z,461.25
2023-03-17T11:15:20.382Z,450.00
2023-03-17T11:16:20.388Z,444.38
2023-03-17T11:17:20.295Z,438.75
2023-03-17T11:18:20.308Z,438.75
2023-03-17T11:19:20.225Z,438.75
2023-03-17T11:20:20.193Z,444.38
2023-03-17T11:21:20.166Z,438.75
2023-03-17T11:22:20.135Z,438.75
2023-03-17T11:23:20.137Z,433.13
2023-03-17T11:24:20.131Z,427.50
2023-03-17T11:25:20.039Z,427.50
2023-03-17T11:26:20.016Z,421.88
2023-03-17T11:27:19.997Z,427.50
2023-03-17T11:28:20.090Z,433.13
2023-03-17T11:29:19.932Z,444.38
2023-03-17T11:30:19.956Z,450.00
2023-03-17T11:31:19.947Z,455.63
2023-03-17T11:32:19.835Z,461.25
2023-03-17T11:33:19.842Z,472.50
2023-03-17T11:34:19.783Z,466.88
2023-03-17T11:35:19.758Z,466.88
2023-03-17T11:36:19.857Z,466.88
2023-03-17T11:37:19.696Z,461.25
2023-03-17T11:38:19.660Z,455.63
2023-03-17T11:39:19.633Z,455.63
2023-03-17T11:40:19.627Z,455.63
2023-03-17T11:41:19.564Z,450.00
2023-03-17T11:42:19.589Z,450.00
2023-03-17T11:43:19.528Z,450.00
2023-03-17T11:44:19.485Z,444.38
2023-03-17T11:45:19.475Z,444.38
2023-03-17T11:46:19.459Z,444.38
2023-03-17T11:47:19.410Z,444.38
2023-03-17T11:48:19.410Z,450.00
2023-03-17T11:49:19.365Z,461.25
2023-03-17T11:50:19.304Z,466.88
2023-03-17T11:51:19.277Z,466.88
2023-03-17T11:52:19.256Z,478.13
2023-03-17T11:53:19.284Z,472.50
2023-03-17T11:54:19.181Z,472.50
2023-03-17T11:55:19.158Z,472.50
2023-03-17T11:56:19.126Z,478.13
2023-03-17T11:57:19.094Z,478.13
2023-03-17T11:58:19.063Z,483.75
2023-03-17T11:59:19.093Z,495.00
2023-03-17T12:00:19.082Z,500.63
2023-03-17T12:01:19.016Z,506.25
2023-03-17T12:02:18.941Z,506.25
2023-03-17T12:03:18.958Z,506.25
2023-03-17T12:04:18.937Z,511.88
2023-03-17T12:05:18.947Z,511.88
2023-03-17T12:06:18.831Z,517.50
2023-03-17T12:07:18.846Z,517.50
2023-03-17T12:08:18.771Z,523.13
2023-03-17T12:09:18.744Z,523.13
2023-03-17T12:10:18.710Z,528.75
2023-03-17T12:11:18.720Z,534.38
2023-03-17T12:12:18.647Z,534.38
2023-03-17T12:13:18.623Z,545.63
2023-03-17T12:14:18.595Z,545.63
2023-03-17T12:15:18.556Z,551.25
2023-03-17T12:16:18.578Z,562.50
2023-03-17T12:17:18.639Z,568.13
2023-03-17T12:18:18.477Z,568.13
2023-03-17T12:19:18.442Z,573.75
2023-03-17T12:20:18.465Z,573.75
2023-03-17T12:21:18.384Z,573.75
2023-03-17T12:22:18.359Z,573.75
2023-03-17T12:23:18.383Z,579.38
2023-03-17T12:24:18.298Z,573.75
2023-03-17T12:25:18.287Z,573.75
2023-03-17T12:26:18.260Z,579.38
2023-03-17T12:27:18.237Z,579.38
2023-03-17T12:28:18.256Z,579.38
2023-03-17T12:29:18.193Z,579.38
2023-03-17T12:30:18.137Z,579.38
2023-03-17T12:31:18.163Z,585.00
2023-03-17T12:32:18.133Z,585.00
2023-03-17T12:33:18.036Z,585.00
2023-03-17T12:34:18.022Z,585.00
2023-03-17T12:35:17.978Z,585.00
2023-03-17T12:36:17.941Z,590.63
2023-03-17T12:37:17.975Z,585.00
2023-03-17T12:38:17.913Z,585.00
2023-03-17T12:39:17.861Z,585.00
2023-03-17T12:40:17.823Z,585.00
2023-03-17T12:41:17.803Z,585.00
2023-03-17T12:42:17.780Z,579.38
2023-03-17T12:43:17.786Z,579.38
2023-03-17T12:44:17.742Z,573.75
2023-03-17T12:45:17.696Z,573.75
2023-03-17T12:46:17.678Z,579.38
2023-03-17T12:47:17.635Z,590.63
2023-03-17T12:48:17.602Z,607.50
2023-03-17T12:49:17.634Z,618.75
2023-03-17T12:50:17.552Z,630.00
2023-03-17T12:51:17.521Z,618.75
2023-03-17T12:52:17.480Z,607.50
2023-03-17T12:53:17.458Z,601.88
2023-03-17T12:54:17.432Z,579.38
2023-03-17T12:55:17.451Z,573.75